createdAt,value
2023-11-17T00:00:13.078Z,9.74
2023-11-17T00:01:15.274Z,9.76
2023-11-17T00:02:17.312Z,9.76
2023-11-17T00:03:20.023Z,9.76
2023-11-17T00:04:22.868Z,9.77
2023-11-17T00:05:24.846Z,9.74
2023-11-17T00:06:26.889Z,9.70
2023-11-17T00:07:29.575Z,9.72
2023-11-17T00:08:33.086Z,9.67
2023-11-17T00:09:35.068Z,9.71
2023-11-17T00:10:37.060Z,9.73
2023-11-17T00:11:39.207Z,9.67
2023-11-17T00:12:42.756Z,9.68
2023-11-17T00:13:44.968Z,9.67
2023-11-17T00:14:48.870Z,9.68
2023-11-17T00:15:52.014Z,9.67
2023-11-17T00:16:54.198Z,9.64
2023-11-17T00:17:56.260Z,9.63
2023-11-17T00:18:58.399Z,9.65
2023-11-17T00:20:00.421Z,9.60
2023-11-17T00:21:04.271Z,9.62
2023-11-17T00:22:06.320Z,9.60
2023-11-17T00:23:08.380Z,9.57
2023-11-17T00:24:10.655Z,9.55
2023-11-17T00:25:13.068Z,9.62
2023-11-17T00:26:15.105Z,9.63
2023-11-17T00:27:17.933Z,9.64
2023-11-17T00:28:20.018Z,9.64
2023-11-17T00:29:22.031Z,9.66
2023-11-17T00:30:24.562Z,9.64
2023-11-17T00:31:32.136Z,9.60
2023-11-17T00:32:34.142Z,9.60
2023-11-17T00:33:39.310Z,9.62
2023-11-17T00:34:41.285Z,9.64
2023-11-17T00:35:46.660Z,9.68
2023-11-17T00:36:48.832Z,9.65
2023-11-17T00:37:52.643Z,9.63
2023-11-17T00:38:54.726Z,9.60
2023-11-17T00:39:59.571Z,9.60
2023-11-17T00:41:01.755Z,9.61
2023-11-17T00:42:04.416Z,9.56
2023-11-17T00:43:06.987Z,9.55
2023-11-17T00:44:09.001Z,9.53
2023-11-17T00:45:11.153Z,9.55
2023-11-17T00:46:15.276Z,9.58
2023-11-17T00:47:17.453Z,9.62
2023-11-17T00:48:19.508Z,9.57
2023-11-17T00:49:21.806Z,9.58
2023-11-17T00:50:24.577Z,9.55
2023-11-17T00:51:26.669Z,9.57
2023-11-17T00:52:28.676Z,9.54
2023-11-17T00:53:30.700Z,9.51
2023-11-17T00:54:37.476Z,9.44
2023-11-17T00:55:41.600Z,9.44
2023-11-17T00:56:43.714Z,9.49
2023-11-17T00:57:45.709Z,9.42
2023-11-17T00:58:47.747Z,9.44
2023-11-17T00:59:49.739Z,9.45
2023-11-17T01:00:52.368Z,9.40
2023-11-17T01:01:54.734Z,9.36
2023-11-17T01:02:56.868Z,9.39
2023-11-17T01:03:58.893Z,9.38
2023-11-17T01:05:00.916Z,9.36
2023-11-17T01:06:02.872Z,9.37
2023-11-17T01:07:04.860Z,9.41
2023-11-17T01:08:08.185Z,9.36
2023-11-17T01:09:10.150Z,9.40
2023-11-17T01:10:12.163Z,9.40
2023-11-17T01:11:14.228Z,9.40
2023-11-17T01:12:16.292Z,9.35
2023-11-17T01:13:18.666Z,9.39
2023-11-17T01:14:21.065Z,9.39
2023-11-17T01:15:23.046Z,9.35
2023-11-17T01:16:25.151Z,9.37
2023-11-17T01:17:27.234Z,9.39
2023-11-17T01:18:29.341Z,9.41
2023-11-17T01:19:31.276Z,9.39
2023-11-17T01:20:33.986Z,9.40
2023-11-17T01:21:35.967Z,9.39
2023-11-17T01:22:37.955Z,9.41
2023-11-17T01:23:40.022Z,9.40
2023-11-17T01:24:42.025Z,9.42
2023-11-17T01:25:44.636Z,9.45
2023-11-17T01:26:47.205Z,9.48
2023-11-17T01:27:49.214Z,9.44
2023-11-17T01:28:51.208Z,9.41
2023-11-17T01:29:53.234Z,9.38
2023-11-17T01:30:55.260Z,9.39
2023-11-17T01:31:57.310Z,9.41
2023-11-17T01:32:59.312Z,9.38
2023-11-17T01:34:01.353Z,9.43
2023-11-17T01:35:04.992Z,9.42
2023-11-17T01:36:07.425Z,9.45
2023-11-17T01:37:09.829Z,9.44
2023-11-17T01:38:14.726Z,9.46
2023-11-17T01:39:16.669Z,9.43
2023-11-17T01:40:23.589Z,9.41
2023-11-17T01:41:25.682Z,9.43
2023-11-17T01:42:33.208Z,9.39
2023-11-17T01:43:35.241Z,9.33
2023-11-17T01:44:37.218Z,9.32
2023-11-17T01:45:40.752Z,9.33
2023-11-17T01:46:43.045Z,9.29
2023-11-17T01:47:45.875Z,9.27
2023-11-17T01:48:47.876Z,9.28
2023-11-17T01:49:49.868Z,9.27
2023-11-17T01:50:51.832Z,9.25
2023-11-17T01:51:53.849Z,9.25
2023-11-17T01:52:57.002Z,9.23
2023-11-17T01:53:59.220Z,9.21
2023-11-17T01:55:07.090Z,9.19
2023-11-17T01:56:09.143Z,9.17
2023-11-17T01:57:13.107Z,9.15
2023-11-17T01:58:16.230Z,9.06
2023-11-17T01:59:22.704Z,9.08
2023-11-17T02:00:25.018Z,9.09
2023-11-17T02:01:28.763Z,9.05
2023-11-17T02:02:31.427Z,9.06
2023-11-17T02:03:33.554Z,9.04
2023-11-17T02:04:35.577Z,9.04
2023-11-17T02:05:37.610Z,9.02
2023-11-17T02:06:49.190Z,9.04
2023-11-17T02:07:53.691Z,9.01
2023-11-17T02:09:15.242Z,9.04
2023-11-17T02:10:26.650Z,9.04
2023-11-17T02:11:36.850Z,9.05
2023-11-17T02:12:55.543Z,9.05
2023-11-17T02:14:20.850Z,9.06
2023-11-17T02:15:26.100Z,9.07
2023-11-17T02:16:30.401Z,9.06
2023-11-17T02:17:35.672Z,9.07
2023-11-17T02:18:38.551Z,9.06
2023-11-17T02:19:42.001Z,9.05
2023-11-17T02:20:46.059Z,9.06
2023-11-17T02:21:48.715Z,9.04
2023-11-17T02:22:51.222Z,9.01
2023-11-17T02:23:53.163Z,9.01
2023-11-17T02:25:18.017Z,9.01
2023-11-17T02:26:35.657Z,9.05
2023-11-17T02:27:41.792Z,9.05
2023-11-17T02:29:08.435Z,9.09
2023-11-17T02:30:10.640Z,9.09
2023-11-17T02:31:20.475Z,9.06
2023-11-17T02:32:25.844Z,9.06
2023-11-17T02:33:27.954Z,9.07
2023-11-17T02:34:29.997Z,9.07
2023-11-17T02:35:35.721Z,9.06
2023-11-17T02:36:40.460Z,9.08
2023-11-17T02:37:43.069Z,9.05
2023-11-17T02:39:15.964Z,9.08
2023-11-17T02:40:22.128Z,9.05
2023-11-17T02:41:30.591Z,9.07
2023-11-17T02:42:38.651Z,9.04
2023-11-17T02:43:43.533Z,9.07
2023-11-17T02:44:46.345Z,9.06
2023-11-17T02:45:48.376Z,9.06
2023-11-17T02:47:00.154Z,9.08
2023-11-17T02:48:05.349Z,9.04
2023-11-17T02:49:19.083Z,9.06
2023-11-17T02:50:23.491Z,9.05
2023-11-17T02:51:33.744Z,9.03
2023-11-17T02:53:05.597Z,8.93
2023-11-17T02:54:09.875Z,8.97
2023-11-17T02:55:11.913Z,8.97
2023-11-17T02:56:13.861Z,8.99
2023-11-17T02:57:16.265Z,8.98
2023-11-17T02:58:18.481Z,8.95
2023-11-17T02:59:20.589Z,8.95
2023-11-17T03:00:23.815Z,8.98
2023-11-17T03:01:28.526Z,8.97
2023-11-17T03:02:30.520Z,8.97
2023-11-17T03:03:35.933Z,9.01
2023-11-17T03:04:40.539Z,8.92
2023-11-17T03:05:42.507Z,8.96
2023-11-17T03:06:47.750Z,8.96
2023-11-17T03:07:49.772Z,8.96
2023-11-17T03:08:51.715Z,8.92
2023-11-17T03:09:54.130Z,8.95
2023-11-17T03:11:03.681Z,8.93
2023-11-17T03:12:08.409Z,8.93
2023-11-17T03:13:17.327Z,8.91
2023-11-17T03:14:25.668Z,8.93
2023-11-17T03:15:29.542Z,8.87
2023-11-17T03:16:31.552Z,8.85
2023-11-17T03:17:34.281Z,8.77
2023-11-17T03:18:40.239Z,8.76
2023-11-17T03:19:42.694Z,8.83
2023-11-17T03:20:47.680Z,8.81
2023-11-17T03:21:49.712Z,8.80
2023-11-17T03:22:51.724Z,8.75
2023-11-17T03:23:53.666Z,8.76
2023-11-17T03:24:59.094Z,8.72
2023-11-17T03:26:01.478Z,8.72
2023-11-17T03:27:04.212Z,8.64
2023-11-17T03:28:11.823Z,8.66
2023-11-17T03:29:15.387Z,8.63
2023-11-17T03:30:19.315Z,8.58
2023-11-17T03:31:21.506Z,8.55
2023-11-17T03:32:23.554Z,8.56
2023-11-17T03:33:25.782Z,8.55
2023-11-17T03:34:31.011Z,8.48
2023-11-17T03:35:33.346Z,8.44
2023-11-17T03:36:35.393Z,8.44
2023-11-17T03:37:37.352Z,8.43
2023-11-17T03:38:39.803Z,8.37
2023-11-17T03:39:44.665Z,8.32
2023-11-17T03:40:46.917Z,8.33
2023-11-17T03:41:49.132Z,8.33
2023-11-17T03:42:51.619Z,8.33
2023-11-17T03:43:53.662Z,8.30
2023-11-17T03:44:58.371Z,8.25
2023-11-17T03:46:01.883Z,8.26
2023-11-17T03:47:08.161Z,8.25
2023-11-17T03:48:10.264Z,8.23
2023-11-17T03:49:13.107Z,8.25
2023-11-17T03:50:15.540Z,8.18
2023-11-17T03:51:19.323Z,8.20
2023-11-17T03:52:24.637Z,8.20
2023-11-17T03:53:27.114Z,8.21
2023-11-17T03:54:29.067Z,8.20
2023-11-17T03:55:33.264Z,8.19
2023-11-17T03:56:35.248Z,8.18
2023-11-17T03:57:38.164Z,8.17
2023-11-17T03:58:40.148Z,8.17
2023-11-17T03:59:47.599Z,8.21
2023-11-17T04:00:50.636Z,8.19
2023-11-17T04:01:52.780Z,8.18
2023-11-17T04:02:58.473Z,8.23
2023-11-17T04:04:00.833Z,8.13
2023-11-17T04:05:05.214Z,8.20
2023-11-17T04:06:07.340Z,8.21
2023-11-17T04:07:09.751Z,8.23
2023-11-17T04:08:11.763Z,8.21
2023-11-17T04:09:17.175Z,8.22
2023-11-17T04:10:20.380Z,8.24
2023-11-17T04:11:22.930Z,8.25
2023-11-17T04:12:24.908Z,8.29
2023-11-17T04:13:29.058Z,8.24
2023-11-17T04:14:40.941Z,8.28
2023-11-17T04:15:42.915Z,8.28
2023-11-17T04:16:48.138Z,8.28
2023-11-17T04:17:50.255Z,8.28
2023-11-17T04:18:52.267Z,8.32
2023-11-17T04:19:54.277Z,8.34
2023-11-17T04:20:56.245Z,8.33
2023-11-17T04:21:58.269Z,8.34
2023-11-17T04:23:01.613Z,8.36
2023-11-17T04:24:03.948Z,8.37
2023-11-17T04:25:06.727Z,8.36
2023-11-17T04:26:11.034Z,8.39
2023-11-17T04:27:13.368Z,8.41
2023-11-17T04:28:15.422Z,8.44
2023-11-17T04:29:17.400Z,8.48
2023-11-17T04:30:22.409Z,8.50
2023-11-17T04:31:25.034Z,8.51
2023-11-17T04:32:27.057Z,8.50
2023-11-17T04:33:29.464Z,8.51
2023-11-17T04:34:32.787Z,8.50
2023-11-17T04:35:34.787Z,8.52
2023-11-17T04:36:38.811Z,8.52
2023-11-17T04:37:41.573Z,8.52
2023-11-17T04:38:43.713Z,8.53
2023-11-17T04:39:46.156Z,8.51
2023-11-17T04:40:48.516Z,8.49
2023-11-17T04:41:50.491Z,8.51
2023-11-17T04:42:52.504Z,8.52
2023-11-17T04:43:54.509Z,8.51
2023-11-17T04:44:56.553Z,8.51
2023-11-17T04:45:58.593Z,8.52
2023-11-17T04:47:00.767Z,8.51
2023-11-17T04:48:05.991Z,8.51
2023-11-17T04:49:08.084Z,8.52
2023-11-17T04:50:11.488Z,8.54
2023-11-17T04:51:13.663Z,8.59
2023-11-17T04:52:15.728Z,8.60
2023-11-17T04:53:17.725Z,8.60
2023-11-17T04:54:19.738Z,8.63
2023-11-17T04:55:21.762Z,8.68
2023-11-17T04:56:23.724Z,8.72
2023-11-17T04:57:25.692Z,8.76
2023-11-17T04:58:27.780Z,8.77
2023-11-17T04:59:29.757Z,8.84
2023-11-17T05:00:34.654Z,8.84
2023-11-17T05:01:36.737Z,8.90
2023-11-17T05:02:42.049Z,8.92
2023-11-17T05:03:44.117Z,8.95
2023-11-17T05:04:46.120Z,8.98
2023-11-17T05:05:49.827Z,9.02
2023-11-17T05:06:51.853Z,9.06
2023-11-17T05:07:54.144Z,9.09
2023-11-17T05:08:56.121Z,9.09
2023-11-17T05:09:58.215Z,9.14
2023-11-17T05:11:01.135Z,9.19
2023-11-17T05:12:03.416Z,9.20
2023-11-17T05:13:06.891Z,9.19
2023-11-17T05:14:09.034Z,9.22
2023-11-17T05:15:13.996Z,9.23
2023-11-17T05:16:16.305Z,9.24
2023-11-17T05:17:18.440Z,9.22
2023-11-17T05:18:20.604Z,9.20
2023-11-17T05:19:23.176Z,9.24
2023-11-17T05:20:25.695Z,9.28
2023-11-17T05:21:27.783Z,9.31
2023-11-17T05:22:30.726Z,9.32
2023-11-17T05:23:32.749Z,9.30
2023-11-17T05:24:35.039Z,9.34
2023-11-17T05:25:37.597Z,9.33
2023-11-17T05:26:39.597Z,9.33
2023-11-17T05:27:42.227Z,9.35
2023-11-17T05:28:47.025Z,9.38
2023-11-17T05:29:49.020Z,9.43
2023-11-17T05:30:51.365Z,9.44
2023-11-17T05:31:53.451Z,9.43
2023-11-17T05:32:55.548Z,9.40
2023-11-17T05:34:02.647Z,9.41
2023-11-17T05:35:11.953Z,9.41
2023-11-17T05:36:14.492Z,9.40
2023-11-17T05:37:16.946Z,9.40
2023-11-17T05:38:18.968Z,9.43
2023-11-17T05:39:20.925Z,9.45
2023-11-17T05:40:22.960Z,9.44
2023-11-17T05:41:27.036Z,9.45
2023-11-17T05:42:32.029Z,9.46
2023-11-17T05:43:34.075Z,9.46
2023-11-17T05:44:36.441Z,9.47
2023-11-17T05:45:41.254Z,9.46
2023-11-17T05:46:46.101Z,9.48
2023-11-17T05:47:50.857Z,9.46
2023-11-17T05:48:53.076Z,9.45
2023-11-17T05:49:59.615Z,9.48
2023-11-17T05:51:07.169Z,9.50
2023-11-17T05:52:09.372Z,9.53
2023-11-17T05:53:11.569Z,9.55
2023-11-17T05:54:13.557Z,9.55
2023-11-17T05:55:18.481Z,9.58
2023-11-17T05:56:21.801Z,9.61
2023-11-17T05:57:23.924Z,9.61
2023-11-17T05:58:25.986Z,9.63
2023-11-17T05:59:27.974Z,9.66
2023-11-17T06:00:29.915Z,9.66
2023-11-17T06:01:31.892Z,9.67
2023-11-17T06:02:34.745Z,9.70
2023-11-17T06:03:36.818Z,9.74
2023-11-17T06:04:38.932Z,9.71
2023-11-17T06:05:40.955Z,9.76
2023-11-17T06:06:42.885Z,9.79
2023-11-17T06:07:44.858Z,9.78
2023-11-17T06:08:46.978Z,9.82
2023-11-17T06:09:49.660Z,9.82
2023-11-17T06:10:51.628Z,9.82
2023-11-17T06:11:54.960Z,9.81
2023-11-17T06:12:56.979Z,9.86
2023-11-17T06:13:59.188Z,9.84
2023-11-17T06:15:02.172Z,9.85
2023-11-17T06:16:05.823Z,9.86
2023-11-17T06:17:10.459Z,9.91
2023-11-17T06:18:17.642Z,9.91
2023-11-17T06:19:19.700Z,9.92
2023-11-17T06:20:21.721Z,9.93
2023-11-17T06:21:23.740Z,9.96
2023-11-17T06:22:25.743Z,9.95
2023-11-17T06:23:27.783Z,9.96
2023-11-17T06:24:29.788Z,9.95
2023-11-17T06:25:33.580Z,9.95
2023-11-17T06:26:36.453Z,9.90
2023-11-17T06:27:41.874Z,9.93
2023-11-17T06:28:43.847Z,9.89
2023-11-17T06:29:46.220Z,9.89
2023-11-17T06:30:48.183Z,9.84
2023-11-17T06:31:50.769Z,9.77
2023-11-17T06:32:52.877Z,9.81
2023-11-17T06:33:54.954Z,9.77
2023-11-17T06:34:56.955Z,9.78
2023-11-17T06:36:01.827Z,9.75
2023-11-17T06:37:04.073Z,9.72
2023-11-17T06:38:06.086Z,9.75
2023-11-17T06:39:15.477Z,9.70
2023-11-17T06:40:17.563Z,9.71
2023-11-17T06:41:19.559Z,9.71
2023-11-17T06:42:23.922Z,9.63
2023-11-17T06:43:25.946Z,9.64
2023-11-17T06:44:27.973Z,9.61
2023-11-17T06:45:29.917Z,9.56
2023-11-17T06:46:32.395Z,9.57
2023-11-17T06:47:34.499Z,9.61
2023-11-17T06:48:39.134Z,9.62
2023-11-17T06:49:41.132Z,9.63
2023-11-17T06:50:43.240Z,9.64
2023-11-17T06:51:45.774Z,9.64
2023-11-17T06:52:47.749Z,9.65
2023-11-17T06:53:51.108Z,9.71
2023-11-17T06:54:53.122Z,9.74
2023-11-17T06:55:55.144Z,9.76
2023-11-17T06:56:57.147Z,9.78
2023-11-17T06:57:59.205Z,9.80
2023-11-17T06:59:01.255Z,9.81
2023-11-17T07:00:08.767Z,9.78
2023-11-17T07:01:10.833Z,9.81
2023-11-17T07:02:12.878Z,9.85
2023-11-17T07:03:14.947Z,9.88
2023-11-17T07:04:17.069Z,9.93
2023-11-17T07:05:19.898Z,9.95
2023-11-17T07:06:26.456Z,9.97
2023-11-17T07:07:28.474Z,9.97
2023-11-17T07:08:30.496Z,10.03
2023-11-17T07:09:33.615Z,10.03
2023-11-17T07:10:35.703Z,10.00
2023-11-17T07:11:37.812Z,10.03
2023-11-17T07:12:39.753Z,10.07
2023-11-17T07:13:41.810Z,10.10
2023-11-17T07:14:43.879Z,10.10
2023-11-17T07:15:45.863Z,10.15
2023-11-17T07:16:48.504Z,10.16
2023-11-17T07:17:53.298Z,10.16
2023-11-17T07:18:55.461Z,10.19
2023-11-17T07:19:57.632Z,10.23
2023-11-17T07:20:59.908Z,10.21
2023-11-17T07:22:02.840Z,10.26
2023-11-17T07:23:04.884Z,10.31
2023-11-17T07:24:07.637Z,10.36
2023-11-17T07:25:12.224Z,10.37
2023-11-17T07:26:19.281Z,10.36
2023-11-17T07:27:21.291Z,10.41
2023-11-17T07:28:23.375Z,10.42
2023-11-17T07:29:25.439Z,10.44
2023-11-17T07:30:27.384Z,10.44
2023-11-17T07:31:29.712Z,10.45
2023-11-17T07:32:31.878Z,10.53
2023-11-17T07:33:33.938Z,10.53
2023-11-17T07:34:36.035Z,10.54
2023-11-17T07:35:41.402Z,10.60
2023-11-17T07:36:43.924Z,10.63
2023-11-17T07:37:46.301Z,10.63
2023-11-17T07:38:53.152Z,10.60
2023-11-17T07:39:55.268Z,10.62
2023-11-17T07:40:57.230Z,10.58
2023-11-17T07:41:59.466Z,10.57
2023-11-17T07:43:01.452Z,10.60
2023-11-17T07:44:04.157Z,10.60
2023-11-17T07:45:08.928Z,10.63
2023-11-17T07:46:10.954Z,10.63
2023-11-17T07:47:14.224Z,10.65
2023-11-17T07:48:19.541Z,10.60
2023-11-17T07:49:23.168Z,10.62
2023-11-17T07:50:25.164Z,10.60
2023-11-17T07:51:27.999Z,10.60
2023-11-17T07:52:30.054Z,10.62
2023-11-17T07:53:32.223Z,10.65
2023-11-17T07:54:34.176Z,10.58
2023-11-17T07:55:36.267Z,10.62
2023-11-17T07:56:38.362Z,10.63
2023-11-17T07:57:41.997Z,10.62
2023-11-17T07:58:44.010Z,10.60
2023-11-17T07:59:47.246Z,10.56
2023-11-17T08:00:49.528Z,10.63
2023-11-17T08:01:51.498Z,10.64
2023-11-17T08:02:53.554Z,10.62
2023-11-17T08:03:56.464Z,10.59
2023-11-17T08:04:58.655Z,10.60
2023-11-17T08:06:00.713Z,10.60
2023-11-17T08:07:03.138Z,10.63
2023-11-17T08:08:05.433Z,10.60
2023-11-17T08:09:11.177Z,10.60
2023-11-17T08:10:14.570Z,10.58
2023-11-17T08:11:17.004Z,10.60
2023-11-17T08:12:20.020Z,10.59
2023-11-17T08:13:22.543Z,10.59
2023-11-17T08:14:26.093Z,10.61
2023-11-17T08:15:30.433Z,10.56
2023-11-17T08:16:35.019Z,10.51
2023-11-17T08:17:39.249Z,10.55
2023-11-17T08:18:41.342Z,10.52
2023-11-17T08:19:43.315Z,10.51
2023-11-17T08:20:46.621Z,10.50
2023-11-17T08:21:50.141Z,10.50
2023-11-17T08:22:52.815Z,10.52
2023-11-17T08:23:55.152Z,10.50
2023-11-17T08:24:58.689Z,10.48
2023-11-17T08:26:00.871Z,10.51
2023-11-17T08:27:03.251Z,10.52
2023-11-17T08:28:08.358Z,10.50
2023-11-17T08:29:10.344Z,10.47
2023-11-17T08:30:12.521Z,10.49
2023-11-17T08:31:16.002Z,10.45
2023-11-17T08:32:18.346Z,10.42
2023-11-17T08:33:20.540Z,10.41
2023-11-17T08:34:23.186Z,10.46
2023-11-17T08:35:25.441Z,10.48
2023-11-17T08:36:29.385Z,10.46
2023-11-17T08:37:34.015Z,10.51
2023-11-17T08:38:36.188Z,10.50
2023-11-17T08:39:39.621Z,10.46
2023-11-17T08:40:41.921Z,10.44
2023-11-17T08:41:43.929Z,10.42
2023-11-17T08:42:46.099Z,10.43
2023-11-17T08:43:48.349Z,10.45
2023-11-17T08:44:50.363Z,10.46
2023-11-17T08:45:54.200Z,10.49
2023-11-17T08:46:56.514Z,10.48
2023-11-17T08:48:02.417Z,10.48
2023-11-17T08:49:05.891Z,10.45
2023-11-17T08:50:09.313Z,10.45
2023-11-17T08:51:11.324Z,10.44
2023-11-17T08:52:14.343Z,10.45
2023-11-17T08:53:17.786Z,10.40
2023-11-17T08:54:19.893Z,10.41
2023-11-17T08:55:24.580Z,10.39
2023-11-17T08:56:26.596Z,10.39
2023-11-17T08:57:28.583Z,10.43
2023-11-17T08:58:30.645Z,10.42
2023-11-17T08:59:32.670Z,10.37
2023-11-17T09:00:35.099Z,10.42
2023-11-17T09:01:37.139Z,10.43
2023-11-17T09:02:42.874Z,10.45
2023-11-17T09:03:44.894Z,10.43
2023-11-17T09:04:48.412Z,10.39
2023-11-17T09:05:50.428Z,10.39
2023-11-17T09:06:53.993Z,10.37
2023-11-17T09:07:57.101Z,10.38
2023-11-17T09:08:59.102Z,10.42
2023-11-17T09:10:01.128Z,10.42
2023-11-17T09:11:04.351Z,10.37
2023-11-17T09:12:06.716Z,10.38
2023-11-17T09:13:09.921Z,10.38
2023-11-17T09:14:11.944Z,10.36
2023-11-17T09:15:20.243Z,10.36
2023-11-17T09:16:24.130Z,10.37
2023-11-17T09:17:29.334Z,10.35
2023-11-17T09:18:35.755Z,10.35
2023-11-17T09:19:39.298Z,10.40
2023-11-17T09:20:41.575Z,10.38
2023-11-17T09:21:44.094Z,10.36
2023-11-17T09:22:46.709Z,10.40
2023-11-17T09:23:48.696Z,10.41
2023-11-17T09:24:51.576Z,10.43
2023-11-17T09:25:53.646Z,10.44
2023-11-17T09:26:55.649Z,10.46
2023-11-17T09:28:00.866Z,10.45
2023-11-17T09:29:02.884Z,10.44
2023-11-17T09:30:06.371Z,10.45
2023-11-17T09:31:08.675Z,10.49
2023-11-17T09:32:13.765Z,10.45
2023-11-17T09:33:15.786Z,10.47
2023-11-17T09:34:18.295Z,10.48
2023-11-17T09:35:22.983Z,10.50
2023-11-17T09:36:26.885Z,10.51
2023-11-17T09:37:30.054Z,10.53
2023-11-17T09:38:37.007Z,10.57
2023-11-17T09:39:39.718Z,10.58
2023-11-17T09:40:42.419Z,10.58
2023-11-17T09:41:44.641Z,10.60
2023-11-17T09:42:47.240Z,10.63
2023-11-17T09:43:49.182Z,10.61
2023-11-17T09:44:51.180Z,10.62
2023-11-17T09:45:53.138Z,10.62
2023-11-17T09:46:55.640Z,10.63
2023-11-17T09:47:58.985Z,10.67
2023-11-17T09:49:04.534Z,10.66
2023-11-17T09:50:06.990Z,10.69
2023-11-17T09:51:08.956Z,10.68
2023-11-17T09:52:11.637Z,10.69
2023-11-17T09:53:16.431Z,10.74
2023-11-17T09:54:23.532Z,10.73
2023-11-17T09:55:29.396Z,10.75
2023-11-17T09:56:31.741Z,10.75
2023-11-17T09:57:35.794Z,10.79
2023-11-17T09:58:38.185Z,10.79
2023-11-17T09:59:43.878Z,10.79
2023-11-17T10:00:47.484Z,10.82
2023-11-17T10:01:49.668Z,10.83
2023-11-17T10:03:00.486Z,10.83
2023-11-17T10:04:03.648Z,10.85
2023-11-17T10:05:06.679Z,10.86
2023-11-17T10:06:10.037Z,10.87
2023-11-17T10:07:13.023Z,10.86
2023-11-17T10:08:16.248Z,10.86
2023-11-17T10:09:18.488Z,10.84
2023-11-17T10:10:20.711Z,10.84
2023-11-17T10:11:22.714Z,10.85
2023-11-17T10:12:24.960Z,10.83
2023-11-17T10:13:27.100Z,10.85
2023-11-17T10:14:29.194Z,10.82
2023-11-17T10:15:32.892Z,10.83
2023-11-17T10:16:34.944Z,10.79
2023-11-17T10:17:37.859Z,10.81
2023-11-17T10:18:41.568Z,10.81
2023-11-17T10:19:43.664Z,10.81
2023-11-17T10:20:47.148Z,10.82
2023-11-17T10:21:50.849Z,10.79
2023-11-17T10:22:54.184Z,10.80
2023-11-17T10:23:56.154Z,10.81
2023-11-17T10:24:58.987Z,10.83
2023-11-17T10:26:02.425Z,10.82
2023-11-17T10:27:04.749Z,10.81
2023-11-17T10:28:06.755Z,10.84
2023-11-17T10:29:11.027Z,10.84
2023-11-17T10:30:13.674Z,10.89
2023-11-17T10:31:18.702Z,10.94
2023-11-17T10:32:36.452Z,11.00
2023-11-17T10:33:45.838Z,11.01
2023-11-17T10:35:12.894Z,11.04
2023-11-17T10:36:17.630Z,11.12
2023-11-17T10:37:20.927Z,11.15
2023-11-17T10:38:22.985Z,11.11
2023-11-17T10:39:25.767Z,11.11
2023-11-17T10:40:33.016Z,11.01
2023-11-17T10:41:35.102Z,11.04
2023-11-17T10:42:37.093Z,11.00
2023-11-17T10:43:53.246Z,11.01
2023-11-17T10:44:55.460Z,10.97
2023-11-17T10:45:59.121Z,11.00
2023-11-17T10:47:03.800Z,11.03
2023-11-17T10:48:09.193Z,11.04
2023-11-17T10:49:16.782Z,11.03
2023-11-17T10:50:18.857Z,11.04
2023-11-17T10:51:22.918Z,11.01
2023-11-17T10:52:31.784Z,10.97
2023-11-17T10:53:33.809Z,10.97
2023-11-17T10:54:36.069Z,10.92
2023-11-17T10:55:38.077Z,10.91
2023-11-17T10:56:44.746Z,10.93
2023-11-17T10:58:04.406Z,10.90
2023-11-17T10:59:11.082Z,10.87
2023-11-17T11:00:22.972Z,10.81
2023-11-17T11:01:31.143Z,10.70
2023-11-17T11:02:33.311Z,10.69
2023-11-17T11:03:35.443Z,10.73
2023-11-17T11:04:37.604Z,10.71
2023-11-17T11:05:39.868Z,10.73
2023-11-17T11:06:43.733Z,10.70
2023-11-17T11:07:45.882Z,10.66
2023-11-17T11:08:57.788Z,10.64
2023-11-17T11:09:59.826Z,10.62
2023-11-17T11:11:05.367Z,10.63
2023-11-17T11:12:11.675Z,10.63
2023-11-17T11:13:16.364Z,10.60
2023-11-17T11:14:18.596Z,10.56
2023-11-17T11:15:21.320Z,10.51
2023-11-17T11:16:26.249Z,10.44
2023-11-17T11:17:28.507Z,10.46
2023-11-17T11:18:33.465Z,10.43
2023-11-17T11:19:41.699Z,10.41
2023-11-17T11:20:51.410Z,10.35
2023-11-17T11:22:02.541Z,10.35
2023-11-17T11:23:06.534Z,10.36
2023-11-17T11:24:09.513Z,10.35
2023-11-17T11:25:13.610Z,10.31
2023-11-17T11:26:18.028Z,10.31
2023-11-17T11:27:19.984Z,10.24
2023-11-17T11:28:22.738Z,10.20
2023-11-17T11:29:25.201Z,10.18
2023-11-17T11:30:28.214Z,10.16
2023-11-17T11:31:32.228Z,10.14
2023-11-17T11:32:36.322Z,10.16
2023-11-17T11:33:38.332Z,10.16
2023-11-17T11:34:40.638Z,10.17
2023-11-17T11:35:43.384Z,10.19
2023-11-17T11:36:48.913Z,10.22
2023-11-17T11:37:53.800Z,10.18
2023-11-17T11:38:57.306Z,10.20
2023-11-17T11:40:01.997Z,10.22
2023-11-17T11:41:04.744Z,10.21
2023-11-17T11:42:08.773Z,10.21
2023-11-17T11:43:11.921Z,10.23
2023-11-17T11:44:14.089Z,10.27
2023-11-17T11:45:18.705Z,10.21
2023-11-17T11:46:22.384Z,10.17
2023-11-17T11:47:25.834Z,10.17
2023-11-17T11:48:31.950Z,10.12
2023-11-17T11:49:34.784Z,10.14
2023-11-17T11:50:39.712Z,10.12
2023-11-17T11:51:58.717Z,10.10
2023-11-17T11:53:15.334Z,10.14
2023-11-17T11:54:17.321Z,10.12
2023-11-17T11:55:19.402Z,10.10
2023-11-17T11:56:23.038Z,10.09
2023-11-17T11:57:32.555Z,10.05
2023-11-17T11:58:40.988Z,10.06
2023-11-17T11:59:42.977Z,10.01
2023-11-17T12:00:46.909Z,10.05
2023-11-17T12:01:50.623Z,10.08
2023-11-17T12:02:56.177Z,10.05
2023-11-17T12:04:07.257Z,10.04
2023-11-17T12:05:11.074Z,10.02
2023-11-17T12:06:21.300Z,10.03
2023-11-17T12:07:37.960Z,9.99
2023-11-17T12:08:39.998Z,9.99
2023-11-17T12:09:44.820Z,9.99
2023-11-17T12:10:46.862Z,10.00
2023-11-17T12:11:50.601Z,10.01
2023-11-17T12:12:53.150Z,10.01
2023-11-17T12:13:56.070Z,9.99
2023-11-17T12:14:58.983Z,10.01
2023-11-17T12:16:02.439Z,10.00
2023-11-17T12:17:08.516Z,9.97
2023-11-17T12:18:12.690Z,9.94
2023-11-17T12:19:17.356Z,9.94
2023-11-17T12:20:25.943Z,9.94
2023-11-17T12:21:28.051Z,9.90
2023-11-17T12:22:57.785Z,9.85
2023-11-17T12:24:05.480Z,9.84
2023-11-17T12:25:07.584Z,9.87
2023-11-17T12:26:09.718Z,9.83
2023-11-17T12:27:14.320Z,9.78
2023-11-17T12:28:18.054Z,9.76
2023-11-17T12:29:24.874Z,9.76
2023-11-17T12:30:27.569Z,9.72
2023-11-17T12:31:30.800Z,9.60
2023-11-17T12:32:34.705Z,9.58
2023-11-17T12:33:36.875Z,9.54
2023-11-17T12:34:43.499Z,9.56
2023-11-17T12:35:46.752Z,9.55
2023-11-17T12:36:58.177Z,9.51
2023-11-17T12:38:03.571Z,9.50
2023-11-17T12:39:08.218Z,9.45
2023-11-17T12:40:20.031Z,9.51
2023-11-17T12:41:26.249Z,9.44
2023-11-17T12:42:30.922Z,9.46
2023-11-17T12:43:33.002Z,9.47
2023-11-17T12:44:35.032Z,9.43
2023-11-17T12:45:39.364Z,9.44
2023-11-17T12:46:42.081Z,9.45
2023-11-17T12:47:45.502Z,9.46
2023-11-17T12:48:47.643Z,9.51
2023-11-17T12:49:55.867Z,9.52
2023-11-17T12:50:59.209Z,9.43
2023-11-17T12:52:08.309Z,9.47
2023-11-17T12:53:11.399Z,9.46
2023-11-17T12:54:17.570Z,9.45
2023-11-17T12:55:19.676Z,9.44
2023-11-17T12:56:23.618Z,9.45
2023-11-17T12:57:26.130Z,9.42
2023-11-17T12:58:32.380Z,9.44
2023-11-17T12:59:34.670Z,9.46
2023-11-17T13:00:39.375Z,9.40
2023-11-17T13:01:42.283Z,9.39
2023-11-17T13:02:44.451Z,9.36
2023-11-17T13:03:48.221Z,9.32
2023-11-17T13:04:50.414Z,9.31
2023-11-17T13:05:54.240Z,9.34
2023-11-17T13:06:56.277Z,9.32
2023-11-17T13:07:58.276Z,9.32
2023-11-17T13:09:01.419Z,9.32
2023-11-17T13:10:05.003Z,9.34
2023-11-17T13:11:11.527Z,9.31
2023-11-17T13:12:14.449Z,9.30
2023-11-17T13:13:19.752Z,9.28
2023-11-17T13:14:22.173Z,9.25
2023-11-17T13:15:24.513Z,9.24
2023-11-17T13:16:30.327Z,9.23
2023-11-17T13:17:37.429Z,9.23
2023-11-17T13:18:43.112Z,9.22
2023-11-17T13:19:45.146Z,9.19
2023-11-17T13:20:47.893Z,9.19
2023-11-17T13:21:49.978Z,9.12
2023-11-17T13:22:52.484Z,9.11
2023-11-17T13:23:56.058Z,9.09
2023-11-17T13:25:02.328Z,9.11
2023-11-17T13:26:14.238Z,9.15
2023-11-17T13:27:16.217Z,9.09
2023-11-17T13:28:18.218Z,9.04
2023-11-17T13:29:20.596Z,9.05
2023-11-17T13:30:23.050Z,9.05
2023-11-17T13:31:26.412Z,9.01
2023-11-17T13:32:28.521Z,9.03
2023-11-17T13:33:42.305Z,9.04
2023-11-17T13:34:56.534Z,9.03
2023-11-17T13:35:59.316Z,9.07
2023-11-17T13:37:01.356Z,8.98
2023-11-17T13:38:06.195Z,9.02
2023-11-17T13:39:11.313Z,9.07
2023-11-17T13:40:34.859Z,9.07
2023-11-17T13:41:39.729Z,9.05
2023-11-17T13:42:41.719Z,9.07
2023-11-17T13:43:43.783Z,9.09
2023-11-17T13:44:45.776Z,9.08
2023-11-17T13:45:49.489Z,9.09
2023-11-17T13:46:52.129Z,9.08
2023-11-17T13:48:05.114Z,9.10
2023-11-17T13:49:13.946Z,9.14
2023-11-17T13:50:16.451Z,9.07
2023-11-17T13:51:20.826Z,9.11
2023-11-17T13:52:23.827Z,9.13
2023-11-17T13:53:29.261Z,9.10
2023-11-17T13:54:35.679Z,9.04
2023-11-17T13:55:38.649Z,9.07
2023-11-17T13:56:45.500Z,9.04
2023-11-17T13:57:47.527Z,9.09
2023-11-17T13:58:49.784Z,9.03